Time;durP1;ratioP1;P1;durP2;ratioP2;P2;SDS_P1;SDS_P2;PMS_P1;PMS_P2;Temp;Humidity;BMP_temperature;BMP_pressure;BME280_temperature;BME280_humidity;BME280_pressure;Samples;Min_cycle;Max_cycle;Signal;HPM_P1;HPM_P2
2023/08/15 00:02:09;;;;;;;4.70;4.30;;;;;;;28.17;38.52;99536.03;5074084;28;20261;-69
2023/08/15 00:04:36;;;;;;;4.17;3.87;;;;;;;28.17;38.42;99535.22;5080336;28;20229;-70
2023/08/15 00:07:04;;;;;;;4.50;3.23;;;;;;;28.19;38.58;99528.34;5085966;28;20274;-69
2023/08/15 00:09:31;;;;;;;4.10;3.90;;;;;;;28.22;38.72;99537.84;5074205;28;20628;-70
2023/08/15 00:11:59;;;;;;;4.07;3.77;;;;;;;28.19;39.24;99524.78;5074021;28;20576;-70
2023/08/15 00:14:26;;;;;;;4.90;3.60;;;;;;;28.20;38.91;99518.19;5078930;28;20278;-68
2023/08/15 00:16:53;;;;;;;3.90;3.70;;;;;;;28.20;38.25;99529.94;5094669;28;20191;-69
2023/08/15 00:19:20;;;;;;;3.97;3.57;;;;;;;28.20;37.14;99529.13;5094070;28;20216;-68
2023/08/15 00:21:47;;;;;;;4.20;3.90;;;;;;;28.21;36.73;99533.47;5094532;28;20195;-68
2023/08/15 00:24:13;;;;;;;3.77;3.50;;;;;;;28.24;36.66;99532.84;5092107;28;20264;-68
2023/08/15 00:26:40;;;;;;;6.03;3.70;;;;;;;28.11;37.25;99514.59;5073677;28;20888;-69
2023/08/15 00:29:08;;;;;;;5.40;3.83;;;;;;;28.17;37.53;99529.78;5074463;28;20191;-67
2023/08/15 00:31:35;;;;;;;4.37;4.07;;;;;;;28.15;36.69;99532.00;5073894;28;20617;-68
2023/08/15 00:34:01;;;;;;;4.40;4.00;;;;;;;28.09;36.76;99538.72;5087012;28;20679;-69
2023/08/15 00:36:28;;;;;;;4.50;4.20;;;;;;;28.10;37.23;99543.81;5093997;28;20188;-69
2023/08/15 00:38:55;;;;;;;3.53;3.33;;;;;;;28.05;36.96;99533.03;5094310;28;20648;-69
2023/08/15 00:41:21;;;;;;;4.17;3.87;;;;;;;28.08;36.94;99542.53;5092227;28;20196;-68
2023/08/15 00:43:48;;;;;;;4.13;3.93;;;;;;;28.05;36.35;99543.16;5094040;28;20190;-68
2023/08/15 00:46:17;;;;;;;4.30;4.00;;;;;;;28.04;36.82;99547.00;5093972;28;20252;-69
2023/08/15 00:48:44;;;;;;;5.93;4.03;;;;;;;28.03;37.49;99537.19;5083070;28;20575;-68
2023/08/15 00:51:12;;;;;;;4.47;4.07;;;;;;;28.03;36.89;99531.72;5073399;28;20196;-68
2023/08/15 00:53:38;;;;;;;4.10;3.90;;;;;;;28.02;37.68;99527.38;5074147;28;20273;-68
2023/08/15 00:56:06;;;;;;;4.80;3.93;;;;;;;28.02;37.70;99527.38;5073382;28;20188;-68
2023/08/15 00:58:32;;;;;;;4.53;4.10;;;;;;;28.01;36.83;99531.25;5080600;28;20199;-68
2023/08/15 01:01:00;;;;;;;4.03;3.73;;;;;;;28.01;37.26;99523.84;5092229;28;20219;-69
2023/08/15 01:03:28;;;;;;;8.73;3.90;;;;;;;27.97;37.62;99527.50;5093391;28;20731;-69
2023/08/15 01:05:55;;;;;;;6.77;4.00;;;;;;;27.96;37.60;99517.69;5093397;28;20195;-69
2023/08/15 01:08:22;;;;;;;4.50;4.00;;;;;;;27.97;38.61;99519.31;5091529;28;20256;-69
2023/08/15 01:10:49;;;;;;;4.73;3.90;;;;;;;27.93;38.48;99513.66;5093159;28;20252;-69
2023/08/15 01:13:35;;;;;;;4.53;4.13;;;;;;;27.93;38.12;99521.06;5093257;28;20195;-70
2023/08/15 01:16:06;;;;;;;4.10;3.90;;;;;;;27.96;38.02;99521.22;5091919;28;20191;-70
2023/08/15 01:18:38;;;;;;;4.40;3.87;;;;;;;27.98;38.28;99520.94;5093636;28;20247;-68
2023/08/15 01:21:06;;;;;;;4.40;4.10;;;;;;;28.00;38.90;99518.69;5092799;28;20268;-69
2023/08/15 01:23:45;;;;;;;4.40;4.00;;;;;;;27.99;38.79;99517.88;5093470;28;20187;-69
2023/08/15 01:26:12;;;;;;;8.77;4.27;;;;;;;27.97;37.57;99514.66;5091276;28;20240;-68
2023/08/15 01:28:39;;;;;;;4.33;3.87;;;;;;;27.97;36.89;99522.06;5072450;28;20196;-69
2023/08/15 01:31:14;;;;;;;4.47;4.17;;;;;;;27.91;37.59;99504.16;5073073;28;20236;-69
2023/08/15 01:33:47;;;;;;;7.10;4.10;;;;;;;27.89;37.26;99517.31;5073026;28;20184;-69
2023/08/15 01:36:20;;;;;;;6.23;4.23;;;;;;;27.90;37.98;99513.47;5073515;28;20242;-69
2023/08/15 01:38:52;;;;;;;4.67;4.17;;;;;;;27.84;37.32;99506.50;5092375;28;20735;-69
2023/08/15 01:41:21;;;;;;;5.73;3.90;;;;;;;27.82;37.66;99511.47;5092902;28;20207;-67
2023/08/15 01:43:49;;;;;;;5.73;3.87;;;;;;;27.81;37.66;99504.38;5092910;28;20265;-67
2023/08/15 01:46:16;;;;;;;4.60;4.20;;;;;;;27.75;37.97;99495.47;5090456;28;20256;-67
2023/08/15 01:48:43;;;;;;;5.13;4.63;;;;;;;27.64;38.06;99501.50;5072268;28;20196;-68
2023/08/15 01:51:10;;;;;;;5.37;4.20;;;;;;;27.48;38.09;99500.22;5072295;28;20732;-69
2023/08/15 01:53:38;;;;;;;4.27;3.93;;;;;;;27.17;38.13;99477.38;5072228;28;20809;-68
2023/08/15 01:56:06;;;;;;;4.47;4.17;;;;;;;27.16;38.95;99495.63;5072083;28;20188;-68
2023/08/15 01:58:33;;;;;;;5.97;4.57;;;;;;;27.19;39.25;99492.31;5091548;28;20739;-69
2023/08/15 02:01:02;;;;;;;4.93;4.43;;;;;;;27.08;39.76;99498.28;5092371;28;20215;-69
2023/08/15 02:03:28;;;;;;;5.07;4.70;;;;;;;27.04;39.60;99494.56;5092477;28;20191;-69
2023/08/15 02:05:55;;;;;;;5.17;4.77;;;;;;;26.98;39.80;99491.09;5092263;28;20195;-69
2023/08/15 02:08:22;;;;;;;4.80;4.37;;;;;;;26.91;40.08;99484.44;5090847;28;20269;-69
2023/08/15 02:10:49;;;;;;;5.37;4.87;;;;;;;26.84;40.28;99484.84;5092466;28;20290;-69
2023/08/15 02:13:17;;;;;;;5.03;4.73;;;;;;;26.75;40.41;99488.56;5092047;28;20191;-67
2023/08/15 02:15:44;;;;;;;4.73;4.30;;;;;;;26.71;40.28;99495.75;5092271;28;20195;-68
2023/08/15 02:18:12;;;;;;;5.07;4.53;;;;;;;26.75;40.44;99485.84;5074885;28;20188;-68
2023/08/15 02:20:38;;;;;;;4.57;4.37;;;;;;;26.77;40.49;99494.53;5071698;28;20311;-68
2023/08/15 02:23:05;;;;;;;5.20;4.50;;;;;;;26.78;40.04;99494.22;5072107;28;20203;-68
2023/08/15 02:25:32;;;;;;;5.53;4.40;;;;;;;26.77;40.43;99483.63;5071534;28;20191;-68
2023/08/15 02:27:58;;;;;;;5.40;4.80;;;;;;;26.84;41.28;99478.59;5085846;28;20247;-67
2023/08/15 02:30:26;;;;;;;5.67;5.13;;;;;;;26.90;40.27;99482.84;5091421;28;20195;-68
2023/08/15 02:32:53;;;;;;;6.03;4.87;;;;;;;26.92;40.12;99486.06;5091958;28;20192;-68
2023/08/15 02:35:20;;;;;;;5.27;4.87;;;;;;;26.85;40.31;99485.66;5092045;28;20340;-68
2023/08/15 02:37:46;;;;;;;5.30;4.70;;;;;;;26.85;41.05;99485.66;5077736;28;20228;-68
2023/08/15 02:40:14;;;;;;;5.10;4.27;;;;;;;26.89;40.65;99481.19;5071979;28;20215;-69
2023/08/15 02:42:41;;;;;;;5.47;5.07;;;;;;;26.92;41.01;99486.88;5071211;28;20192;-69
2023/08/15 02:45:09;;;;;;;5.17;4.63;;;;;;;26.90;40.65;99483.63;5071442;28;20192;-70
2023/08/15 02:47:37;;;;;;;5.83;4.70;;;;;;;26.94;41.06;99478.38;5082427;28;20551;-69
2023/08/15 02:50:04;;;;;;;6.50;4.17;;;;;;;26.95;41.26;99478.06;5091874;28;20252;-69
2023/08/15 02:52:31;;;;;;;7.57;4.50;;;;;;;26.99;41.24;99478.28;5091988;28;20191;-68
2023/08/15 02:54:57;;;;;;;5.03;4.63;;;;;;;27.02;40.96;99481.22;5087956;28;20196;-68
2023/08/15 02:57:24;;;;;;;6.80;4.53;;;;;;;27.09;41.00;99486.25;5071571;28;20222;-68
2023/08/15 02:59:51;;;;;;;5.83;4.80;;;;;;;27.09;41.36;99489.81;5071500;28;20220;-68
2023/08/15 03:02:17;;;;;;;8.43;4.20;;;;;;;27.08;42.15;99484.66;5070895;28;20195;-68
2023/08/15 03:04:45;;;;;;;5.80;4.23;;;;;;;27.12;41.73;99485.66;5071204;28;20679;-71
2023/08/15 03:07:12;;;;;;;8.30;4.53;;;;;;;27.14;41.75;99484.25;5080148;28;20199;-69
2023/08/15 03:09:39;;;;;;;4.60;4.40;;;;;;;27.17;42.11;99488.28;5091476;28;20192;-69
2023/08/15 03:12:06;;;;;;;4.60;4.30;;;;;;;27.18;41.74;99478.97;5090989;28;20191;-69
2023/08/15 03:14:33;;;;;;;7.43;4.90;;;;;;;27.18;41.53;99495.34;5091343;28;20199;-69
2023/08/15 03:17:00;;;;;;;10.83;4.37;;;;;;;27.15;41.89;99490.50;5089541;28;20651;-70
2023/08/15 03:19:27;;;;;;;8.50;4.90;;;;;;;27.21;41.84;99483.84;5091103;28;20618;-69
2023/08/15 03:21:55;;;;;;;5.77;4.43;;;;;;;27.23;42.03;99487.91;5091541;28;20288;-69
2023/08/15 03:24:22;;;;;;;11.07;4.80;;;;;;;27.31;42.09;99489.13;5092991;28;20195;-70
2023/08/15 03:26:48;;;;;;;4.70;4.20;;;;;;;27.27;41.98;99479.94;5077525;28;20188;-68
2023/08/15 03:29:15;;;;;;;8.70;4.73;;;;;;;27.44;41.17;99496.47;5090884;28;20195;-68
2023/08/15 03:31:41;;;;;;;6.20;5.30;;;;;;;27.46;40.91;99499.69;5094829;28;20199;-68
2023/08/15 03:34:08;;;;;;;5.97;5.33;;;;;;;27.49;40.96;99504.53;5094916;28;20623;-69
2023/08/15 03:36:35;;;;;;;7.93;5.00;;;;;;;27.48;42.24;99502.94;5080193;28;20257;-68
2023/08/15 03:39:03;;;;;;;15.70;5.77;;;;;;;27.48;43.04;99505.66;5074602;28;20227;-68
2023/08/15 03:41:30;;;;;;;14.23;5.30;;;;;;;27.50;42.21;99498.78;5075391;28;20214;-69
2023/08/15 03:43:58;;;;;;;5.40;4.50;;;;;;;27.53;41.90;99505.53;5074070;28;20247;-68
2023/08/15 03:46:25;;;;;;;5.30;4.97;;;;;;;27.56;41.63;99502.22;5074413;28;20639;-70
2023/08/15 03:48:51;;;;;;;4.63;4.30;;;;;;;27.53;41.45;99502.81;5074627;28;20253;-69
2023/08/15 03:51:18;;;;;;;5.70;5.23;;;;;;;27.55;41.21;99508.75;5074621;28;20272;-69
2023/08/15 03:53:45;;;;;;;12.23;5.10;;;;;;;27.52;42.73;99503.94;5074519;28;20253;-69
2023/08/15 03:56:13;;;;;;;12.77;6.17;;;;;;;27.47;44.31;99498.56;5074427;28;20218;-70
2023/08/15 03:58:39;;;;;;;9.37;4.77;;;;;;;27.46;43.89;99496.97;5074687;28;20188;-67
2023/08/15 04:01:06;;;;;;;7.83;5.13;;;;;;;27.43;43.46;99501.09;5074335;28;20220;-67
2023/08/15 04:03:33;;;;;;;5.27;4.67;;;;;;;27.45;42.79;99506.28;5073478;28;20651;-67
2023/08/15 04:05:59;;;;;;;5.60;4.93;;;;;;;27.49;42.40;99512.72;5074552;28;20563;-68
2023/08/15 04:08:26;;;;;;;5.73;5.17;;;;;;;27.49;42.01;99512.72;5074546;28;20740;-69
2023/08/15 04:10:54;;;;;;;10.37;5.37;;;;;;;27.50;42.09;99511.59;5073997;28;20635;-68
2023/08/15 04:13:22;;;;;;;8.23;5.90;;;;;;;27.52;42.06;99523.84;5073275;28;20196;-69
2023/08/15 04:15:49;;;;;;;6.80;5.77;;;;;;;27.50;41.53;99517.06;5074189;28;20257;-69
2023/08/15 04:18:14;;;;;;;7.53;4.87;;;;;;;27.48;42.75;99516.59;5073967;28;20196;-69
2023/08/15 04:20:43;;;;;;;12.70;6.30;;;;;;;27.45;43.75;99507.09;5079826;28;20700;-68
2023/08/15 04:23:10;;;;;;;16.10;5.87;;;;;;;27.45;43.24;99517.19;5085934;28;20225;-66
2023/08/15 04:25:38;;;;;;;6.47;5.40;;;;;;;27.24;42.27;99521.44;5074189;28;20261;-68
2023/08/15 04:28:05;;;;;;;20.03;6.13;;;;;;;27.05;43.98;99524.25;5073892;28;20261;-68
2023/08/15 04:30:34;;;;;;;12.67;5.70;;;;;;;26.95;44.77;99524.44;5073915;28;20196;-70
2023/08/15 04:33:01;;;;;;;12.67;6.03;;;;;;;26.95;44.96;99526.38;5086363;28;20618;-67
2023/08/15 04:35:27;;;;;;;11.43;6.13;;;;;;;26.97;44.88;99526.84;5092704;28;20191;-69
2023/08/15 04:37:54;;;;;;;14.57;6.10;;;;;;;26.98;45.46;99533.91;5093396;28;20277;-70
2023/08/15 04:40:30;;;;;;;18.00;6.67;;;;;;;26.93;46.69;99532.13;5093430;28;20227;-69
2023/08/15 04:42:57;;;;;;;10.93;6.20;;;;;;;26.89;46.25;99530.28;5080017;28;20183;-69
2023/08/15 04:45:24;;;;;;;13.57;5.87;;;;;;;26.84;44.92;99538.56;5073406;28;20281;-69
2023/08/15 04:47:52;;;;;;;6.53;4.87;;;;;;;26.67;45.44;99543.78;5073865;28;20246;-68
2023/08/15 04:50:19;;;;;;;9.90;5.90;;;;;;;26.76;44.60;99547.44;5078456;28;20266;-68
2023/08/15 04:52:46;;;;;;;8.70;5.40;;;;;;;26.66;44.21;99542.16;5094189;28;20261;-69
2023/08/15 04:55:13;;;;;;;7.83;5.37;;;;;;;26.72;45.13;99536.34;5093944;28;20191;-68
2023/08/15 04:57:39;;;;;;;7.83;5.53;;;;;;;26.78;43.98;99543.28;5094046;28;20214;-69
2023/08/15 05:00:08;;;;;;;19.23;6.27;;;;;;;26.64;43.66;99542.47;5076087;28;20729;-70
2023/08/15 05:02:36;;;;;;;13.03;6.77;;;;;;;26.48;44.05;99534.81;5073242;28;20192;-69
2023/08/15 05:05:05;;;;;;;20.27;6.80;;;;;;;26.51;44.59;99545.13;5072969;28;20198;-68
2023/08/15 05:07:32;;;;;;;89.83;10.13;;;;;;;26.55;46.41;99546.13;5084542;28;20192;-69
2023/08/15 05:09:59;;;;;;;14.20;5.33;;;;;;;26.48;45.51;99545.72;5090929;28;20191;-73
2023/08/15 05:12:26;;;;;;;29.30;6.83;;;;;;;26.34;46.22;99544.88;5092631;28;20195;-74
2023/08/15 05:14:52;;;;;;;7.70;6.47;;;;;;;26.26;45.84;99546.38;5092290;28;20655;-73
2023/08/15 05:17:19;;;;;;;35.87;6.60;;;;;;;26.19;45.51;99543.19;5092901;28;20625;-79
2023/08/15 05:19:46;;;;;;;15.97;5.37;;;;;;;26.14;45.64;99528.84;5079503;28;20249;-78
2023/08/15 05:22:14;;;;;;;8.03;5.53;;;;;;;26.13;45.18;99554.47;5073652;28;20230;-75
2023/08/15 05:24:41;;;;;;;18.07;6.33;;;;;;;26.03;45.76;99549.97;5100642;28;20248;-74
2023/08/15 05:27:07;;;;;;;10.03;5.70;;;;;;;26.10;46.05;99549.59;5091547;28;20545;-75
2023/08/15 05:29:34;;;;;;;13.20;5.40;;;;;;;26.01;46.38;99546.72;5089840;28;20682;-74
2023/08/15 05:32:01;;;;;;;10.80;5.67;;;;;;;26.05;46.41;99536.06;5090377;28;20268;-75
2023/08/15 05:34:27;;;;;;;11.67;6.23;;;;;;;26.12;46.26;99545.47;5091021;28;20555;-72
2023/08/15 05:36:54;;;;;;;13.13;6.20;;;;;;;26.13;46.40;99544.38;5090100;28;20535;-76
2023/08/15 05:39:22;;;;;;;9.47;5.40;;;;;;;26.30;45.75;99544.63;5089003;28;20191;-77
2023/08/15 05:41:49;;;;;;;11.60;5.33;;;;;;;26.36;46.01;99550.81;5090390;28;20268;-77
2023/08/15 05:44:16;;;;;;;23.43;7.10;;;;;;;26.47;46.10;99549.53;5089971;28;20727;-70
2023/08/15 05:46:42;;;;;;;12.67;6.10;;;;;;;26.60;45.71;99537.91;5089939;28;20877;-72
2023/08/15 05:49:09;;;;;;;6.97;5.20;;;;;;;26.85;45.53;99541.00;5089123;28;20201;-71
2023/08/15 05:51:36;;;;;;;10.37;6.33;;;;;;;27.07;44.95;99553.94;5091139;28;20663;-73
2023/08/15 05:54:03;;;;;;;13.30;6.00;;;;;;;27.22;44.02;99545.47;5071805;28;20269;-75
2023/08/15 05:56:31;;;;;;;10.10;5.93;;;;;;;27.35;43.58;99544.66;5077930;28;20204;-78
2023/08/15 05:58:58;;;;;;;7.90;6.30;;;;;;;27.43;43.05;99550.22;5074602;28;20752;-78
2023/08/15 06:01:24;;;;;;;20.93;6.87;;;;;;;27.40;43.12;99545.38;5081688;28;20233;-76
2023/08/15 06:03:51;;;;;;;10.83;5.73;;;;;;;27.32;42.99;99548.03;5080353;28;20183;-74
2023/08/15 06:06:18;;;;;;;14.80;6.07;;;;;;;27.40;43.57;99547.31;5079810;28;20183;-74
2023/08/15 06:08:44;;;;;;;23.50;7.67;;;;;;;27.41;43.62;99551.66;5070355;28;20247;-75
2023/08/15 06:11:11;;;;;;;59.83;9.33;;;;;;;27.44;42.85;99546.38;5074800;28;20638;-76
2023/08/15 06:13:39;;;;;;;19.33;6.63;;;;;;;27.43;43.29;99550.22;5086870;28;20180;-74
2023/08/15 06:16:06;;;;;;;18.30;7.07;;;;;;;27.50;43.70;99547.09;5073501;28;20199;-77
2023/08/15 06:18:33;;;;;;;21.93;6.70;;;;;;;27.64;43.89;99548.69;5081416;28;20765;-76
2023/08/15 06:20:59;;;;;;;19.63;6.60;;;;;;;27.73;43.54;99551.50;5081474;28;20211;-74
2023/08/15 06:23:26;;;;;;;18.77;7.37;;;;;;;27.77;43.68;99547.06;5077501;28;20184;-77
2023/08/15 06:25:52;;;;;;;32.83;6.87;;;;;;;27.87;43.83;99552.31;5079327;28;20234;-74
2023/08/15 06:28:20;;;;;;;18.80;6.57;;;;;;;27.88;43.31;99545.72;5078535;28;20671;-76
2023/08/15 06:30:49;;;;;;;6.90;6.30;;;;;;;27.92;43.25;99550.28;5079523;28;20282;-78
2023/08/15 06:33:22;;;;;;;16.70;6.70;;;;;;;27.88;41.72;99543.00;5078985;28;20611;-76
2023/08/15 06:35:58;;;;;;;22.23;6.53;;;;;;;27.78;41.70;99532.28;5077754;28;20184;-74
2023/08/15 06:38:25;;;;;;;10.33;5.87;;;;;;;27.85;42.42;99540.91;5078330;28;20436;-77
2023/08/15 06:40:52;;;;;;;13.83;6.17;;;;;;;27.88;41.98;99541.09;5077883;28;20223;-74
2023/08/15 06:43:18;;;;;;;23.20;6.60;;;;;;;27.72;41.92;99538.97;5077858;28;20192;-78
2023/08/15 06:45:45;;;;;;;52.93;8.43;;;;;;;27.59;42.58;99539.78;5079822;28;20199;-78
2023/08/15 06:48:13;;;;;;;16.13;6.13;;;;;;;27.49;43.10;99529.09;5077847;28;20316;-75
2023/08/15 06:50:40;;;;;;;28.60;6.40;;;;;;;27.37;43.28;99529.63;5078426;28;20248;-78
2023/08/15 06:53:06;;;;;;;34.37;6.73;;;;;;;27.29;43.62;99533.06;5084095;28;20191;-75
2023/08/15 06:55:33;;;;;;;7.20;5.63;;;;;;;27.26;43.25;99530.13;5088024;28;20236;-70
2023/08/15 06:58:01;;;;;;;15.00;6.33;;;;;;;27.17;44.26;99537.38;5087058;28;20556;-74
2023/08/15 07:00:28;;;;;;;22.30;5.93;;;;;;;27.16;45.01;99520.19;5088254;28;20182;-76
2023/08/15 07:02:54;;;;;;;15.80;5.53;;;;;;;27.04;43.72;99527.28;5078125;28;20307;-78
2023/08/15 07:05:22;;;;;;;23.40;6.63;;;;;;;26.84;43.82;99522.19;5068759;28;20200;-78
2023/08/15 07:07:49;;;;;;;13.67;5.93;;;;;;;26.91;44.09;99523.41;5069346;28;20261;-73
2023/08/15 07:10:16;;;;;;;25.13;6.63;;;;;;;26.94;44.35;99522.00;5069807;28;20200;-72
2023/08/15 07:12:43;;;;;;;16.50;6.30;;;;;;;26.88;44.46;99528.66;5072671;28;20192;-75
2023/08/15 07:15:10;;;;;;;31.10;7.53;;;;;;;26.80;44.65;99527.47;5070598;28;20187;-75
2023/08/15 07:17:37;;;;;;;15.07;5.77;;;;;;;26.85;45.32;99530.09;5085226;28;20200;-74
2023/08/15 07:20:05;;;;;;;13.43;6.20;;;;;;;26.78;44.90;99528.88;5071021;28;20192;-73
2023/08/15 07:22:33;;;;;;;10.97;5.63;;;;;;;26.68;45.73;99526.31;5087235;28;20215;-75
2023/08/15 07:25:00;;;;;;;14.13;6.23;;;;;;;26.68;45.73;99518.97;5087826;28;20198;-73
2023/08/15 07:27:27;;;;;;;11.97;6.70;;;;;;;26.55;45.98;99508.00;5088246;28;20535;-69
2023/08/15 07:29:54;;;;;;;11.10;6.33;;;;;;;26.52;46.24;99511.31;5087923;28;20264;-74
2023/08/15 07:32:21;;;;;;;11.07;5.53;;;;;;;26.47;46.31;99509.50;5077681;28;20188;-74
2023/08/15 07:34:48;;;;;;;15.97;6.57;;;;;;;26.55;46.10;99513.44;5069066;28;20199;-72
2023/08/15 07:37:14;;;;;;;22.20;6.77;;;;;;;26.58;45.83;99519.13;5076831;28;20277;-73
2023/08/15 07:39:42;;;;;;;15.77;6.73;;;;;;;26.52;45.84;99506.69;5087858;28;20248;-74
2023/08/15 07:42:09;;;;;;;12.07;6.40;;;;;;;26.77;46.35;99511.69;5079997;28;20211;-76
2023/08/15 07:44:36;;;;;;;11.50;5.40;;;;;;;27.04;46.09;99505.44;5076421;28;20253;-74
2023/08/15 07:47:03;;;;;;;13.87;6.10;;;;;;;27.23;44.80;99517.13;5075929;28;20390;-73
2023/08/15 07:49:31;;;;;;;18.67;6.70;;;;;;;27.39;44.13;99518.38;5078240;28;20185;-72
2023/08/15 07:51:58;;;;;;;9.60;5.53;;;;;;;27.39;44.83;99518.38;5075983;28;20192;-73
2023/08/15 07:54:25;;;;;;;9.93;5.97;;;;;;;27.47;44.37;99520.41;5079275;28;20188;-75
2023/08/15 07:56:53;;;;;;;6.07;5.50;;;;;;;27.50;44.08;99515.16;5076840;28;20247;-73
2023/08/15 07:59:19;;;;;;;19.53;6.70;;;;;;;27.56;44.36;99511.19;5082985;28;20619;-77
2023/08/15 08:01:46;;;;;;;14.13;6.97;;;;;;;27.51;44.46;99514.03;5089499;28;20223;-72
2023/08/15 08:04:13;;;;;;;17.70;6.97;;;;;;;27.66;44.32;99510.16;5073170;28;20196;-73
2023/08/15 08:06:40;;;;;;;11.83;5.70;;;;;;;27.59;44.31;99515.22;5073690;28;20638;-75
2023/08/15 08:09:08;;;;;;;24.40;6.43;;;;;;;27.57;44.58;99512.00;5082842;28;20204;-73
2023/08/15 08:11:35;;;;;;;30.90;7.43;;;;;;;27.58;45.02;99506.25;5072717;28;20203;-72
2023/08/15 08:14:03;;;;;;;23.43;7.13;;;;;;;27.32;46.05;99505.16;5093890;28;20249;-75
2023/08/15 08:16:30;;;;;;;14.33;5.90;;;;;;;27.08;46.50;99507.28;5090916;28;20199;-75
2023/08/15 08:18:57;;;;;;;22.07;6.23;;;;;;;26.89;47.68;99503.00;5080629;28;20195;-73
2023/08/15 08:21:24;;;;;;;6.93;5.03;;;;;;;26.76;47.91;99499.19;5090502;28;20199;-72
2023/08/15 08:23:51;;;;;;;16.70;6.10;;;;;;;26.68;48.44;99496.34;5076538;28;20250;-72
2023/08/15 08:26:17;;;;;;;12.77;5.77;;;;;;;26.71;48.43;99501.19;5073804;28;20196;-75
2023/08/15 08:28:44;;;;;;;10.63;6.00;;;;;;;26.71;48.70;99501.97;5088734;28;20191;-74
2023/08/15 08:31:12;;;;;;;18.00;6.40;;;;;;;26.75;48.76;99500.28;5078379;28;20262;-77
2023/08/15 08:33:39;;;;;;;16.30;5.50;;;;;;;26.65;49.05;99503.19;5072817;28;20226;-77
2023/08/15 08:36:06;;;;;;;11.63;6.00;;;;;;;26.66;48.76;99504.00;5072884;28;20220;-76
2023/08/15 08:38:32;;;;;;;6.90;6.03;;;;;;;26.58;49.03;99485.63;5072123;28;20227;-75
2023/08/15 08:40:59;;;;;;;14.83;6.23;;;;;;;26.69;48.69;99503.41;5084655;28;20279;-79
2023/08/15 08:43:28;;;;;;;11.17;6.00;;;;;;;26.70;48.76;99505.03;5092225;28;20223;-80
2023/08/15 08:45:58;;;;;;;15.13;5.77;;;;;;;26.75;48.39;99504.94;5073912;28;20192;-79
2023/08/15 08:48:26;;;;;;;10.07;6.10;;;;;;;26.73;47.66;99504.41;5073074;28;20275;-81
2023/08/15 08:50:55;;;;;;;9.70;5.60;;;;;;;26.67;47.83;99500.16;5084804;28;20198;-79
2023/08/15 08:53:24;;;;;;;12.40;5.67;;;;;;;26.68;47.69;99502.59;5091803;28;20195;-79
2023/08/15 08:55:51;;;;;;;8.57;5.10;;;;;;;26.70;47.99;99499.59;5093298;28;20199;-72
2023/08/15 08:58:18;;;;;;;17.07;6.27;;;;;;;26.66;47.98;99501.28;5092608;28;20199;-73
2023/08/15 09:00:47;;;;;;;7.00;4.70;;;;;;;26.50;47.66;99503.44;5093519;28;20191;-77
2023/08/15 09:03:13;;;;;;;13.00;5.73;;;;;;;26.52;47.83;99503.13;5074785;28;20517;-75
2023/08/15 09:05:42;;;;;;;13.83;5.67;;;;;;;26.27;47.91;99454.53;5071745;28;20203;-74
2023/08/15 09:08:09;;;;;;;12.53;6.17;;;;;;;26.40;48.02;99502.78;5087285;28;20279;-77
2023/08/15 09:10:36;;;;;;;13.00;5.80;;;;;;;26.48;47.93;99513.00;5081652;28;20729;-77
2023/08/15 09:13:04;;;;;;;16.37;5.63;;;;;;;26.51;47.75;99510.53;5070646;28;20825;-76
2023/08/15 09:15:31;;;;;;;11.00;5.57;;;;;;;26.45;47.00;99513.63;5071605;28;20726;-73
2023/08/15 09:18:00;;;;;;;12.43;5.20;;;;;;;26.48;47.22;99513.84;5071824;28;20192;-73
2023/08/15 09:20:27;;;;;;;46.90;8.23;;;;;;;26.53;47.75;99516.47;5081448;28;20546;-74
2023/08/15 09:22:58;;;;;;;5.60;5.10;;;;;;;26.59;47.18;99512.59;5090994;28;20233;-73
2023/08/15 09:25:27;;;;;;;26.77;6.07;;;;;;;26.68;46.89;99508.06;5091876;28;20187;-72
2023/08/15 09:27:54;;;;;;;10.00;5.60;;;;;;;26.69;46.94;99517.84;5092004;28;20248;-72
2023/08/15 09:30:22;;;;;;;10.73;5.63;;;;;;;26.76;46.83;99509.28;5080508;28;20643;-71
2023/08/15 09:32:48;;;;;;;8.83;4.90;;;;;;;26.96;46.74;99519.78;5078153;28;20272;-71
2023/08/15 09:35:17;;;;;;;9.90;5.10;;;;;;;27.05;46.70;99512.50;5091023;28;20196;-72
2023/08/15 09:37:45;;;;;;;10.43;4.80;;;;;;;27.25;45.75;99514.88;5090958;28;20277;-73
2023/08/15 09:40:16;;;;;;;6.40;5.97;;;;;;;27.30;47.25;99512.03;5089751;28;20245;-72
2023/08/15 09:42:44;;;;;;;11.77;5.90;;;;;;;27.30;47.33;99509.31;5090621;28;20317;-72
2023/08/15 09:45:12;;;;;;;5.57;5.07;;;;;;;27.30;48.15;99504.66;5078313;28;20639;-71
2023/08/15 09:47:40;;;;;;;5.97;5.47;;;;;;;27.66;48.03;99500.06;5071055;28;20200;-73
2023/08/15 09:50:08;;;;;;;39.40;8.03;;;;;;;27.87;46.44;99514.91;5071816;28;20287;-71
2023/08/15 09:52:38;;;;;;;10.47;6.43;;;;;;;27.88;49.24;99504.75;5070563;28;20203;-71
2023/08/15 09:55:08;;;;;;;8.33;5.67;;;;;;;27.95;48.57;99505.16;5072006;28;20184;-73
2023/08/15 09:57:37;;;;;;;6.27;5.57;;;;;;;28.06;49.50;99512.00;5070943;28;20235;-73
2023/08/15 10:00:05;;;;;;;6.60;5.47;;;;;;;28.03;50.97;99507.16;5071158;28;20197;-71
2023/08/15 10:02:42;;;;;;;17.40;6.97;;;;;;;28.07;51.27;99508.16;5075784;28;20298;-70
2023/08/15 10:05:11;;;;;;;9.13;6.57;;;;;;;28.27;50.60;99502.19;5090183;28;20244;-69
2023/08/15 10:07:38;;;;;;;6.90;5.93;;;;;;;28.45;50.80;99501.19;5085751;28;20260;-71
2023/08/15 10:10:06;;;;;;;22.20;7.30;;;;;;;28.52;51.65;99512.50;5084847;28;20196;-72
2023/08/15 10:12:37;;;;;;;15.60;6.63;;;;;;;28.47;52.34;99507.19;5076712;28;20199;-72
2023/08/15 10:15:07;;;;;;;7.57;6.80;;;;;;;28.52;52.41;99510.59;5080823;28;20261;-71
2023/08/15 10:17:34;;;;;;;9.10;7.13;;;;;;;28.56;53.46;99516.22;5081354;28;20200;-73
2023/08/15 10:20:02;;;;;;;7.27;6.67;;;;;;;28.44;53.92;99502.31;5079111;28;20192;-74
2023/08/15 10:22:30;;;;;;;14.00;7.37;;;;;;;28.43;54.34;99511.66;5079810;28;20229;-74
2023/08/15 10:25:21;;;;;;;7.37;6.73;;;;;;;28.39;53.76;99516.91;5077404;28;20192;-71
2023/08/15 10:27:51;;;;;;;7.93;6.50;;;;;;;28.28;54.04;99492.88;5070570;28;20351;-70
2023/08/15 10:30:29;;;;;;;11.17;5.80;;;;;;;28.39;53.92;99505.16;5082067;28;20195;-71
2023/08/15 10:32:56;;;;;;;7.10;6.50;;;;;;;28.41;54.21;99508.41;5088284;28;20655;-70
2023/08/15 10:35:26;;;;;;;9.30;6.43;;;;;;;28.38;54.13;99514.47;5079373;28;20227;-68
2023/08/15 10:37:55;;;;;;;10.67;7.30;;;;;;;28.10;55.06;99496.59;5076353;28;20714;-70
2023/08/15 10:40:22;;;;;;;10.07;6.83;;;;;;;28.12;55.62;99510.75;5083688;28;20188;-73
2023/08/15 10:43:10;;;;;;;9.53;6.90;;;;;;;28.08;56.39;99517.94;5084284;28;20726;-72
2023/08/15 10:45:39;;;;;;;6.97;6.30;;;;;;;27.90;57.39;99513.47;5073463;28;20553;-74
2023/08/15 10:48:07;;;;;;;10.30;6.87;;;;;;;27.75;58.01;99511.03;5082647;28;20225;-72
2023/08/15 10:50:35;;;;;;;7.07;6.47;;;;;;;27.63;58.95;99506.13;5085011;28;20183;-73
2023/08/15 10:53:02;;;;;;;8.47;6.13;;;;;;;27.46;60.33;99507.88;5085920;28;20199;-71
2023/08/15 10:55:31;;;;;;;7.27;6.63;;;;;;;27.46;60.69;99507.88;5081790;28;20196;-73
2023/08/15 10:57:57;;;;;;;8.03;7.30;;;;;;;27.47;61.00;99513.03;5076894;28;20655;-70
2023/08/15 11:00:26;;;;;;;7.60;6.83;;;;;;;27.38;61.94;99512.13;5083134;28;20581;-74
2023/08/15 11:02:54;;;;;;;8.80;7.10;;;;;;;27.34;62.38;99511.13;5084546;28;20686;-68
2023/08/15 11:05:22;;;;;;;8.47;7.57;;;;;;;27.31;62.94;99510.94;5089565;28;20260;-71
2023/08/15 11:07:48;;;;;;;14.67;7.53;;;;;;;27.26;63.88;99508.28;5080741;28;20197;-69
2023/08/15 11:10:15;;;;;;;9.47;7.30;;;;;;;27.35;63.52;99511.91;5079582;28;20655;-73
2023/08/15 11:12:48;;;;;;;11.30;6.77;;;;;;;27.46;63.59;99513.34;5080909;28;20221;-68
2023/08/15 11:15:15;;;;;;;8.33;7.00;;;;;;;27.44;63.61;99510.13;5078058;28;20180;-69
2023/08/15 11:17:46;;;;;;;8.23;7.53;;;;;;;27.43;63.58;99511.22;5079128;28;20624;-70
2023/08/15 11:20:13;;;;;;;16.83;7.47;;;;;;;27.30;64.23;99501.13;5080504;28;20287;-67
2023/08/15 11:22:40;;;;;;;8.43;7.63;;;;;;;27.21;64.20;99500.22;5081452;28;20219;-70
2023/08/15 11:25:08;;;;;;;7.77;7.00;;;;;;;27.17;64.20;99510.09;5075648;28;20188;-70
2023/08/15 11:27:40;;;;;;;10.07;7.13;;;;;;;27.28;64.32;99511.53;5074508;28;20592;-71
2023/08/15 11:30:08;;;;;;;7.97;6.60;;;;;;;27.33;64.56;99500.53;5077761;28;20180;-69
2023/08/15 11:32:37;;;;;;;19.20;8.43;;;;;;;27.37;64.58;99509.72;5073069;28;20200;-68